This is the latest recevied weather packets stored in our database for station/object KB3FKJ. If no packets are shown the sender has not sent any weather packets the latest 1 day(s).
| Time | Temp. | Humidity | Pressure | Rain* | Wind** | Luminosity | Snow |
|---|---|---|---|---|---|---|---|
| 1777981047 | 15.56° C | 71% | 1008.8 hPa | 0 mm | 1.34 m/s, 221° | 44 W/m² | - |
| 1777980743 | 15.56° C | 78% | 1008.7 hPa | 0 mm | 0.45 m/s, 145° | 45 W/m² | - |
| 1777980439 | 15° C | 77% | 1008.4 hPa | 0 mm | 0.45 m/s, 150° | 41 W/m² | - |
| 1777980138 | 15° C | 79% | 1008.7 hPa | 0 mm | 0.45 m/s, 148° | 35 W/m² | - |
| 1777979838 | 14.44° C | 82% | 1008.3 hPa | 0 mm | 0.89 m/s, 239° | 20 W/m² | - |
| 1777979534 | 13.89° C | 86% | 1008.4 hPa | 1.78 mm | 0 m/s | 12 W/m² | - |
| 1777979230 | 13.89° C | 87% | 1008.7 hPa | 0 mm | 0 m/s | 6 W/m² | - |
| 1777978928 | 14.44° C | 85% | 1008.6 hPa | 0 mm | 0 m/s | 5 W/m² | - |
| 1777978624 | 15° C | 83% | 1008.4 hPa | 0 mm | 0 m/s | 4 W/m² | - |
| 1777978319 | 15° C | 81% | 1008.5 hPa | 0 mm | 0.45 m/s, 137° | 2 W/m² | - |
| 1777978016 | 17.22° C | 70% | 1008.6 hPa | 0 mm | 0.89 m/s, 133° | 2 W/m² | - |
| 1777977714 | 17.22° C | 63% | 1008.5 hPa | 0 mm | 0.89 m/s, 166° | 5 W/m² | - |
| 1777977410 | 17.22° C | 64% | 1008.4 hPa | 0 mm | 0.89 m/s, 280° | 9 W/m² | - |
| 1777977108 | 16.67° C | 63% | 1008.3 hPa | 0 mm | 1.79 m/s, 263° | 10 W/m² | - |
| 1777976805 | 16.67° C | 62% | 1008.2 hPa | 0 mm | 1.34 m/s, 134° | 7 W/m² | - |
| 1777976503 | 16.67° C | 62% | 1008.3 hPa | 0 mm | 0.89 m/s, 186° | 5 W/m² | - |
| 1777976202 | 16.67° C | 61% | 1008.2 hPa | 0 mm | 0.89 m/s, 228° | 4 W/m² | - |
| 1777975898 | 16.67° C | 61% | 1008.2 hPa | 0 mm | 0.89 m/s, 194° | 2 W/m² | - |
| 1777975594 | 16.67° C | 61% | 1007.9 hPa | 0 mm | 1.34 m/s, 189° | 1 W/m² | - |
| 1777975291 | 17.22° C | 60% | 1008.1 hPa | 0 mm | 0.45 m/s, 145° | 1 W/m² | - |
| 1777974987 | 16.67° C | 61% | 1008.1 hPa | 0 mm | 0.89 m/s, 162° | 0 W/m² | - |
| 1777974684 | 16.67° C | 62% | 1008.1 hPa | 0 mm | 0.45 m/s, 142° | 0 W/m² | - |
| 1777974380 | 16.67° C | 62% | 1008 hPa | 0 mm | 0.89 m/s, 260° | 0 W/m² | - |
| 1777974077 | 16.67° C | 62% | 1008.1 hPa | 0 mm | 0.45 m/s, 125° | 0 W/m² | - |
| 1777973773 | 16.67° C | 62% | 1007.9 hPa | 0 mm | 0.89 m/s, 162° | 0 W/m² | - |
* Rain latest hour (hover to see other rain measurements)
** Current wind speed in m/s (hover to see current wind gust speed)